| time (UTC) | temp C | wind direction | speed KPH | gust KPH | rain 1hr cm | rain 24hr cm | rain mn cm | humidity % | barometer mb |
| 20260502162012 | 28 | 117 | 6.4 | 19.3 | 0.00 | 0.00 | 0.00 | 29 | 1014.5 |
| 20260502161528 | 28 | 64 | 8.0 | 19.3 | 0.00 | 0.00 | 0.00 | 29 | 1014.4 |
| 20260502161011 | 28 | 80 | 6.4 | 22.5 | 0.00 | 0.00 | 0.00 | 29 | 1014.4 |
| 20260502160514 | 28 | 81 | 8.0 | 22.5 | 0.00 | 0.00 | 0.00 | 29 | 1014.4 |
| 20260502152012 | 26 | 94 | 1.6 | 6.4 | 0.00 | 0.00 | 0.00 | 28 | 1014.1 |
| 20260502151527 | 26 | 94 | 0.0 | 3.2 | 0.00 | 0.00 | 0.00 | 27 | 1014.0 |
| 20260502151011 | 25 | 94 | 0.0 | 1.6 | 0.00 | 0.00 | 0.00 | 28 | 1014.0 |
| 20260502150512 | 25 | 0 | 0.0 | 3.2 | 0.00 | 0.00 | 0.00 | 27 | 1014.1 |
| 20260502130508 | 17 | 0 | 0.0 | 3.2 | 0.00 | 0.00 | 0.00 | 38 | 1012.6 |
| 20260502123514 | 17 | 360 | 0.0 | 1.6 | 0.00 | 0.00 | 0.00 | 37 | 1011.9 |
| 20260502123028 | 17 | 0 | 0.0 | 1.6 | 0.00 | 0.00 | 0.00 | 37 | 1012.0 |
| 20260502122512 | 17 | 0 | 0.0 | 1.6 | 0.00 | 0.00 | 0.00 | 36 | 1011.9 |
| 20260502122011 | 17 | 0 | 0.0 | 1.6 | 0.00 | 0.00 | 0.00 | 35 | 1011.9 |
| 20260502121532 | 18 | 0 | 0.0 | 0.0 | 0.00 | 0.00 | 0.00 | 35 | 1011.8 |
| 20260502121011 | 18 | 0 | 0.0 | 0.0 | 0.00 | 0.00 | 0.00 | 34 | 1011.8 |
| 20260502120512 | 18 | 0 | 0.0 | 1.6 | 0.00 | 0.00 | 0.00 | 34 | 1011.6 |
| 20260502115511 | 18 | 0 | 0.0 | 1.6 | 0.00 | 0.00 | 0.00 | 33 | 1011.8 |
| 20260502115011 | 18 | 0 | 0.0 | 1.6 | 0.00 | 0.00 | 0.00 | 33 | 1011.7 |
| 20260502114526 | 18 | 360 | 0.0 | 3.2 | 0.00 | 0.00 | 0.00 | 33 | 1011.6 |
| 20260502114011 | 18 | 0 | 0.0 | 3.2 | 0.00 | 0.00 | 0.00 | 33 | 1011.6 |
| 20260502113511 | 18 | 0 | 0.0 | 1.6 | 0.00 | 0.00 | 0.00 | 32 | 1011.6 |
| 20260502113028 | 19 | 0 | 0.0 | 0.0 | 0.00 | 0.00 | 0.00 | 32 | 1011.5 |
| 20260502112510 | 19 | 0 | 0.0 | 1.6 | 0.00 | 0.00 | 0.00 | 32 | 1011.6 |
| 20260502112012 | 19 | 0 | 0.0 | 1.6 | 0.00 | 0.00 | 0.00 | 31 | 1011.6 |
| 20260502111530 | 19 | 360 | 0.0 | 1.6 | 0.00 | 0.00 | 0.00 | 32 | 1011.6 |
| 20260502111011 | 19 | 0 | 0.0 | 1.6 | 0.00 | 0.00 | 0.00 | 31 | 1011.6 |
| 20260502110513 | 19 | 0 | 0.0 | 3.2 | 0.00 | 0.00 | 0.00 | 31 | 1011.6 |
| 20260502110028 | 20 | 0 | 0.0 | 3.2 | 0.00 | 0.00 | 0.00 | 30 | 1011.5 |
| 20260502105508 | 20 | 360 | 0.0 | 3.2 | 0.00 | 0.00 | 0.00 | 31 | 1011.5 |
| 20260502105010 | 20 | 0 | 0.0 | 3.2 | 0.00 | 0.00 | 0.00 | 31 | 1011.6 |
| 20260502104527 | 20 | 0 | 0.0 | 3.2 | 0.00 | 0.00 | 0.00 | 31 | 1011.6 |
| 20260502104013 | 20 | 360 | 0.0 | 4.8 | 0.00 | 0.00 | 0.00 | 31 | 1011.4 |
| 20260502103511 | 20 | 0 | 0.0 | 4.8 | 0.00 | 0.00 | 0.00 | 30 | 1011.4 |
| 20260502103055 | 20 | 0 | 1.6 | 4.8 | 0.00 | 0.00 | 0.00 | 30 | 1011.3 |
| 20260502102511 | 20 | 360 | 0.0 | 4.8 | 0.00 | 0.00 | 0.00 | 30 | 1011.4 |
| 20260502102010 | 20 | 0 | 0.0 | 4.8 | 0.00 | 0.00 | 0.00 | 30 | 1011.2 |
| 20260502101545 | 20 | 0 | 0.0 | 4.8 | 0.00 | 0.00 | 0.00 | 30 | 1011.3 |
| 20260502101010 | 20 | 0 | 0.0 | 1.6 | 0.00 | 0.00 | 0.00 | 31 | 1011.3 |
| 20260502100510 | 20 | 0 | 0.0 | 3.2 | 0.00 | 0.00 | 0.00 | 32 | 1011.2 |
| 20260502091530 | 21 | 0 | 0.0 | 1.6 | 0.00 | 0.00 | 0.00 | 29 | 1010.8 |
| 20260502091016 | 21 | 0 | 0.0 | 3.2 | 0.00 | 0.00 | 0.00 | 29 | 1010.9 |
| 20260502090510 | 21 | 0 | 0.0 | 3.2 | 0.00 | 0.00 | 0.00 | 29 | 1010.8 |
| 20260502071529 | 23 | 0 | 0.0 | 1.6 | 0.00 | 0.00 | 0.00 | 23 | 1010.1 |
| 20260502071010 | 23 | 0 | 0.0 | 1.6 | 0.00 | 0.00 | 0.00 | 23 | 1010.1 |
| 20260502070512 | 23 | 0 | 0.0 | 1.6 | 0.00 | 0.00 | 0.00 | 22 | 1010.1 |
| 20260502070028 | 23 | 0 | 0.0 | 1.6 | 0.00 | 0.00 | 0.00 | 22 | 1010.0 |
| 20260502065512 | 23 | 0 | 0.0 | 1.6 | 0.00 | 0.00 | 0.00 | 21 | 1010.0 |
| 20260502065014 | 23 | 0 | 0.0 | 1.6 | 0.00 | 0.00 | 0.00 | 21 | 1009.9 |
| 20260502064536 | 23 | 360 | 0.0 | 3.2 | 0.00 | 0.00 | 0.00 | 21 | 1010.1 |
| 20260502064015 | 23 | 0 | 0.0 | 3.2 | 0.00 | 0.00 | 0.00 | 21 | 1010.0 |
| 20260502063510 | 23 | 0 | 0.0 | 3.2 | 0.00 | 0.00 | 0.00 | 21 | 1010.0 |
| 20260502063028 | 23 | 360 | 0.0 | 4.8 | 0.00 | 0.00 | 0.00 | 22 | 1010.1 |
| 20260502062512 | 24 | 0 | 0.0 | 4.8 | 0.00 | 0.00 | 0.00 | 22 | 1010.0 |
| 20260502062012 | 24 | 360 | 0.0 | 3.2 | 0.00 | 0.00 | 0.00 | 20 | 1010.1 |
| 20260502061528 | 24 | 0 | 0.0 | 3.2 | 0.00 | 0.00 | 0.00 | 20 | 1010.2 |
| 20260502061008 | 24 | 0 | 0.0 | 3.2 | 0.00 | 0.00 | 0.00 | 20 | 1010.2 |
| 20260502060507 | 24 | 0 | 0.0 | 4.8 | 0.00 | 0.00 | 0.00 | 21 | 1010.0 |
| 20260502060030 | 24 | 360 | 0.0 | 4.8 | 0.00 | 0.00 | 0.00 | 20 | 1010.0 |
| 20260502055510 | 24 | 360 | 0.0 | 4.8 | 0.00 | 0.00 | 0.00 | 20 | 1010.0 |
| 20260502055008 | 24 | 360 | 0.0 | 4.8 | 0.00 | 0.00 | 0.00 | 20 | 1009.9 |
| 20260502054548 | 24 | 0 | 0.0 | 4.8 | 0.00 | 0.00 | 0.00 | 20 | 1009.9 |
| 20260502054008 | 24 | 360 | 1.6 | 4.8 | 0.00 | 0.00 | 0.00 | 20 | 1009.8 |
| 20260502053510 | 24 | 360 | 0.0 | 4.8 | 0.00 | 0.00 | 0.00 | 21 | 1009.9 |
| 20260502053029 | 24 | 360 | 0.0 | 3.2 | 0.00 | 0.00 | 0.00 | 21 | 1009.9 |
| 20260502052511 | 24 | 0 | 0.0 | 3.2 | 0.00 | 0.00 | 0.00 | 20 | 1009.8 |
| 20260502052007 | 24 | 0 | 0.0 | 3.2 | 0.00 | 0.00 | 0.00 | 20 | 1009.8 |
| 20260502051528 | 25 | 0 | 0.0 | 3.2 | 0.00 | 0.00 | 0.00 | 21 | 1009.8 |
| 20260502051011 | 25 | 360 | 0.0 | 3.2 | 0.00 | 0.00 | 0.00 | 20 | 1009.7 |
| 20260502050509 | 25 | 0 | 0.0 | 1.6 | 0.00 | 0.00 | 0.00 | 21 | 1009.7 |
| 20260502050028 | 25 | 360 | 0.0 | 3.2 | 0.00 | 0.00 | 0.00 | 20 | 1009.7 |
| 20260502045509 | 25 | 0 | 0.0 | 3.2 | 0.00 | 0.00 | 0.00 | 21 | 1009.6 |
| 20260502045011 | 25 | 0 | 0.0 | 3.2 | 0.00 | 0.00 | 0.00 | 20 | 1009.6 |
| 20260502044529 | 25 | 360 | 0.0 | 3.2 | 0.00 | 0.00 | 0.00 | 20 | 1009.6 |
| 20260502044008 | 26 | 360 | 1.6 | 3.2 | 0.00 | 0.00 | 0.00 | 20 | 1009.6 |
| 20260502043511 | 26 | 0 | 0.0 | 1.6 | 0.00 | 0.00 | 0.00 | 20 | 1009.7 |
| 20260502043029 | 26 | 360 | 0.0 | 1.6 | 0.00 | 0.00 | 0.00 | 20 | 1009.6 |
| 20260502042512 | 26 | 0 | 0.0 | 3.2 | 0.00 | 0.00 | 0.00 | 20 | 1009.6 |
| 20260502042012 | 26 | 0 | 0.0 | 3.2 | 0.00 | 0.00 | 0.00 | 19 | 1009.6 |
| 20260502041532 | 26 | 360 | 0.0 | 3.2 | 0.00 | 0.00 | 0.00 | 19 | 1009.5 |
| 20260502041010 | 26 | 0 | 0.0 | 3.2 | 0.00 | 0.00 | 0.00 | 19 | 1009.4 |
| 20260502040507 | 26 | 0 | 0.0 | 3.2 | 0.00 | 0.00 | 0.00 | 19 | 1009.5 |
| 20260502040028 | 26 | 360 | 0.0 | 3.2 | 0.00 | 0.00 | 0.00 | 20 | 1009.5 |
| 20260502035510 | 27 | 0 | 0.0 | 3.2 | 0.00 | 0.00 | 0.00 | 19 | 1009.3 |
| 20260502035010 | 27 | 217 | 0.0 | 3.2 | 0.00 | 0.00 | 0.00 | 19 | 1009.3 |
| 20260502034528 | 27 | 0 | 0.0 | 3.2 | 0.00 | 0.00 | 0.00 | 18 | 1009.2 |
| 20260502034010 | 27 | 0 | 0.0 | 3.2 | 0.00 | 0.00 | 0.00 | 18 | 1009.2 |
| 20260502033510 | 27 | 0 | 0.0 | 3.2 | 0.00 | 0.00 | 0.00 | 17 | 1009.1 |
| 20260502033037 | 27 | 0 | 0.0 | 3.2 | 0.00 | 0.00 | 0.00 | 17 | 1009.1 |
| 20260502032513 | 28 | 219 | 0.0 | 3.2 | 0.00 | 0.00 | 0.00 | 17 | 1009.0 |
| 20260502032008 | 28 | 219 | 0.0 | 3.2 | 0.00 | 0.00 | 0.00 | 17 | 1008.9 |
| 20260502031528 | 28 | 0 | 0.0 | 3.2 | 0.00 | 0.00 | 0.00 | 17 | 1008.8 |
| 20260502031010 | 28 | 0 | 0.0 | 3.2 | 0.00 | 0.00 | 0.00 | 17 | 1008.8 |
| 20260502030508 | 28 | 219 | 0.0 | 3.2 | 0.00 | 0.00 | 0.00 | 17 | 1008.7 |
| 20260502030030 | 28 | 0 | 0.0 | 3.2 | 0.00 | 0.00 | 0.00 | 17 | 1008.7 |
| 20260502025510 | 28 | 0 | 0.0 | 3.2 | 0.00 | 0.00 | 0.00 | 17 | 1008.6 |
| 20260502025011 | 28 | 0 | 0.0 | 3.2 | 0.00 | 0.00 | 0.00 | 17 | 1008.5 |
| 20260502024526 | 29 | 0 | 0.0 | 4.8 | 0.00 | 0.00 | 0.00 | 17 | 1008.5 |
| 20260502024015 | 29 | 219 | 0.0 | 4.8 | 0.00 | 0.00 | 0.00 | 16 | 1008.5 |
| 20260502023509 | 29 | 220 | 0.0 | 4.8 | 0.00 | 0.00 | 0.00 | 16 | 1008.4 |
| 20260502023028 | 30 | 221 | 1.6 | 4.8 | 0.00 | 0.00 | 0.00 | 16 | 1008.3 |
| 20260502022509 | 30 | 0 | 0.0 | 4.8 | 0.00 | 0.00 | 0.00 | 16 | 1008.3 |
| 20260502022011 | 30 | 0 | 0.0 | 4.8 | 0.00 | 0.00 | 0.00 | 16 | 1008.3 |
| 20260502021531 | 30 | 220 | 0.0 | 3.2 | 0.00 | 0.00 | 0.00 | 16 | 1008.3 |
| 20260502021008 | 30 | 219 | 1.6 | 3.2 | 0.00 | 0.00 | 0.00 | 16 | 1008.3 |
| 20260502020510 | 30 | 219 | 0.0 | 4.8 | 0.00 | 0.00 | 0.00 | 16 | 1008.2 |
| 20260502020028 | 30 | 0 | 0.0 | 6.4 | 0.00 | 0.00 | 0.00 | 16 | 1008.1 |
| 20260502015510 | 30 | 219 | 1.6 | 6.4 | 0.00 | 0.00 | 0.00 | 16 | 1008.1 |
| 20260502015012 | 30 | 227 | 1.6 | 6.4 | 0.00 | 0.00 | 0.00 | 16 | 1008.0 |
| 20260502014530 | 31 | 236 | 1.6 | 6.4 | 0.00 | 0.00 | 0.00 | 16 | 1008.1 |
| 20260502014010 | 31 | 247 | 1.6 | 6.4 | 0.00 | 0.00 | 0.00 | 16 | 1008.2 |
| 20260502013510 | 31 | 0 | 0.0 | 6.4 | 0.00 | 0.00 | 0.00 | 16 | 1008.1 |
| 20260502013028 | 31 | 252 | 1.6 | 6.4 | 0.00 | 0.00 | 0.00 | 16 | 1008.2 |
| 20260502012510 | 31 | 249 | 1.6 | 6.4 | 0.00 | 0.00 | 0.00 | 16 | 1008.2 |
| 20260502012008 | 31 | 243 | 1.6 | 8.0 | 0.00 | 0.00 | 0.00 | 16 | 1008.1 |
| 20260502011530 | 31 | 241 | 1.6 | 8.0 | 0.00 | 0.00 | 0.00 | 16 | 1008.1 |
| 20260502011008 | 31 | 242 | 1.6 | 9.7 | 0.00 | 0.00 | 0.00 | 18 | 1008.2 |
| 20260502010509 | 31 | 235 | 3.2 | 9.7 | 0.00 | 0.00 | 0.00 | 17 | 1008.2 |
| 20260502010030 | 31 | 272 | 3.2 | 9.7 | 0.00 | 0.00 | 0.00 | 17 | 1008.3 |
| 20260502005513 | 31 | 0 | 1.6 | 17.7 | 0.00 | 0.00 | 0.00 | 17 | 1008.2 |
| 20260502005010 | 31 | 228 | 6.4 | 17.7 | 0.00 | 0.00 | 0.00 | 17 | 1008.2 |
| 20260502004526 | 31 | 254 | 3.2 | 12.9 | 0.00 | 0.00 | 0.00 | 17 | 1008.2 |
| 20260502004009 | 31 | 221 | 3.2 | 16.1 | 0.00 | 0.00 | 0.00 | 17 | 1008.3 |
| 20260502003509 | 31 | 274 | 3.2 | 16.1 | 0.00 | 0.00 | 0.00 | 17 | 1008.3 |
| 20260502003028 | 32 | 284 | 6.4 | 14.5 | 0.00 | 0.00 | 0.00 | 16 | 1008.2 |
| 20260502002513 | 32 | 249 | 3.2 | 16.1 | 0.00 | 0.00 | 0.00 | 17 | 1008.2 |
| 20260502002011 | 32 | 283 | 4.8 | 16.1 | 0.00 | 0.00 | 0.00 | 17 | 1008.3 |
| 20260502001532 | 32 | 306 | 3.2 | 20.9 | 0.00 | 0.00 | 0.00 | 17 | 1008.2 |
| 20260502001011 | 32 | 254 | 9.7 | 20.9 | 0.00 | 0.00 | 0.00 | 17 | 1008.3 |
| 20260502000512 | 32 | 292 | 4.8 | 16.1 | 0.00 | 0.00 | 0.00 | 17 | 1008.4 |
| 20260502000028 | 32 | 277 | 3.2 | 14.5 | 0.00 | 0.00 | 0.00 | 17 | 1008.3 |
| 20260501235511 | 32 | 315 | 4.8 | 16.1 | 0.00 | 0.00 | 0.00 | 17 | 1008.3 |
| 20260501235011 | 32 | 279 | 4.8 | 16.1 | 0.00 | 0.00 | 0.00 | 18 | 1008.2 |
| 20260501234530 | 32 | 284 | 3.2 | 12.9 | 0.00 | 0.00 | 0.00 | 17 | 1008.5 |
| 20260501234010 | 32 | 271 | 4.8 | 16.1 | 0.00 | 0.00 | 0.00 | 18 | 1008.4 |
| 20260501233510 | 32 | 312 | 3.2 | 16.1 | 0.00 | 0.00 | 0.00 | 19 | 1008.4 |
| 20260501233027 | 32 | 35 | 4.8 | 16.1 | 0.00 | 0.00 | 0.00 | 18 | 1008.5 |
| 20260501232516 | 32 | 303 | 3.2 | 19.3 | 0.00 | 0.00 | 0.00 | 19 | 1008.5 |
| 20260501232010 | 32 | 263 | 4.8 | 20.9 | 0.00 | 0.00 | 0.00 | 19 | 1008.5 |
| 20260501231528 | 32 | 238 | 6.4 | 20.9 | 0.00 | 0.00 | 0.00 | 18 | 1008.6 |
| 20260501231008 | 32 | 345 | 6.4 | 17.7 | 0.00 | 0.00 | 0.00 | 18 | 1008.5 |
| 20260501230509 | 32 | 263 | 6.4 | 17.7 | 0.00 | 0.00 | 0.00 | 19 | 1008.6 |
| 20260501230028 | 32 | 236 | 8.0 | 17.7 | 0.00 | 0.00 | 0.00 | 19 | 1008.7 |
| 20260501225509 | 32 | 315 | 3.2 | 17.7 | 0.00 | 0.00 | 0.00 | 18 | 1008.8 |
| 20260501225007 | 32 | 282 | 6.4 | 17.7 | 0.00 | 0.00 | 0.00 | 20 | 1008.7 |
| 20260501224529 | 32 | 272 | 4.8 | 17.7 | 0.00 | 0.00 | 0.00 | 19 | 1008.9 |
| 20260501224010 | 32 | 254 | 8.0 | 17.7 | 0.00 | 0.00 | 0.00 | 20 | 1008.9 |
| 20260501223509 | 32 | 264 | 8.0 | 17.7 | 0.00 | 0.00 | 0.00 | 20 | 1008.9 |
| 20260501223036 | 32 | 273 | 8.0 | 19.3 | 0.00 | 0.00 | 0.00 | 20 | 1009.0 |
| 20260501222511 | 32 | 302 | 8.0 | 24.1 | 0.00 | 0.00 | 0.00 | 21 | 1009.0 |
| 20260501222014 | 32 | 288 | 11.3 | 24.1 | 0.00 | 0.00 | 0.00 | 20 | 1009.1 |
| 20260501221531 | 32 | 265 | 6.4 | 25.7 | 0.00 | 0.00 | 0.00 | 20 | 1009.2 |
| 20260501221012 | 32 | 300 | 8.0 | 25.7 | 0.00 | 0.00 | 0.00 | 20 | 1009.1 |
| 20260501220508 | 32 | 252 | 14.5 | 25.7 | 0.00 | 0.00 | 0.00 | 21 | 1009.4 |
| 20260501220028 | 32 | 281 | 6.4 | 25.7 | 0.00 | 0.00 | 0.00 | 21 | 1009.3 |
| 20260501215510 | 32 | 286 | 4.8 | 25.7 | 0.00 | 0.00 | 0.00 | 19 | 1009.4 |
| 20260501215008 | 32 | 276 | 8.0 | 25.7 | 0.00 | 0.00 | 0.00 | 19 | 1009.4 |
| 20260501214533 | 32 | 223 | 6.4 | 20.9 | 0.00 | 0.00 | 0.00 | 21 | 1009.4 |
| 20260501214009 | 32 | 0 | 3.2 | 20.9 | 0.00 | 0.00 | 0.00 | 20 | 1009.5 |
| 20260501213512 | 32 | 283 | 9.7 | 16.1 | 0.00 | 0.00 | 0.00 | 20 | 1009.6 |
| 20260501213027 | 32 | 305 | 4.8 | 14.5 | 0.00 | 0.00 | 0.00 | 21 | 1009.7 |
| 20260501212508 | 32 | 15 | 4.8 | 16.1 | 0.00 | 0.00 | 0.00 | 20 | 1009.8 |
| 20260501212009 | 32 | 322 | 8.0 | 16.1 | 0.00 | 0.00 | 0.00 | 21 | 1009.8 |
| 20260501211547 | 32 | 159 | 3.2 | 12.9 | 0.00 | 0.00 | 0.00 | 20 | 1009.8 |
| 20260501211013 | 32 | 315 | 6.4 | 12.9 | 0.00 | 0.00 | 0.00 | 21 | 1010.0 |
| 20260501210509 | 32 | 0 | 1.6 | 14.5 | 0.00 | 0.00 | 0.00 | 22 | 1010.0 |
| 20260501210036 | 32 | 41 | 3.2 | 14.5 | 0.00 | 0.00 | 0.00 | 22 | 1010.1 |
| 20260501205507 | 32 | 257 | 6.4 | 14.5 | 0.00 | 0.00 | 0.00 | 22 | 1010.2 |
| 20260501205007 | 32 | 279 | 4.8 | 11.3 | 0.00 | 0.00 | 0.00 | 22 | 1010.4 |
| 20260501204529 | 32 | 329 | 0.0 | 12.9 | 0.00 | 0.00 | 0.00 | 23 | 1010.3 |
| 20260501204008 | 31 | 325 | 1.6 | 14.5 | 0.00 | 0.00 | 0.00 | 23 | 1010.6 |
| 20260501203508 | 31 | 323 | 3.2 | 14.5 | 0.00 | 0.00 | 0.00 | 22 | 1010.7 |
| 20260501203030 | 31 | 295 | 1.6 | 12.9 | 0.00 | 0.00 | 0.00 | 23 | 1010.6 |
| 20260501202509 | 31 | 339 | 3.2 | 12.9 | 0.00 | 0.00 | 0.00 | 24 | 1010.7 |
| 20260501202011 | 31 | 238 | 3.2 | 14.5 | 0.00 | 0.00 | 0.00 | 24 | 1010.8 |
| 20260501201529 | 31 | 234 | 3.2 | 14.5 | 0.00 | 0.00 | 0.00 | 23 | 1010.8 |
| 20260501201019 | 31 | 314 | 4.8 | 12.9 | 0.00 | 0.00 | 0.00 | 24 | 1010.8 |
| 20260501200517 | 31 | 277 | 1.6 | 16.1 | 0.00 | 0.00 | 0.00 | 23 | 1010.8 |
| 20260501200027 | 31 | 278 | 3.2 | 16.1 | 0.00 | 0.00 | 0.00 | 24 | 1010.8 |
| 20260501195510 | 31 | 0 | 6.4 | 16.1 | 0.00 | 0.00 | 0.00 | 25 | 1010.9 |
| 20260501195007 | 30 | 315 | 3.2 | 16.1 | 0.00 | 0.00 | 0.00 | 24 | 1011.0 |
| 20260501194526 | 31 | 262 | 4.8 | 16.1 | 0.00 | 0.00 | 0.00 | 24 | 1011.0 |
| 20260501194011 | 31 | 0 | 4.8 | 12.9 | 0.00 | 0.00 | 0.00 | 23 | 1011.0 |
| 20260501193513 | 31 | 259 | 1.6 | 9.7 | 0.00 | 0.00 | 0.00 | 25 | 1011.2 |
| 20260501193028 | 31 | 159 | 3.2 | 9.7 | 0.00 | 0.00 | 0.00 | 24 | 1011.3 |
| 20260501192508 | 31 | 140 | 3.2 | 8.0 | 0.00 | 0.00 | 0.00 | 23 | 1011.3 |
| 20260501192009 | 31 | 0 | 1.6 | 6.4 | 0.00 | 0.00 | 0.00 | 24 | 1011.4 |
| 20260501191527 | 31 | 34 | 1.6 | 9.7 | 0.00 | 0.00 | 0.00 | 23 | 1011.4 |
| 20260501191013 | 31 | 0 | 1.6 | 9.7 | 0.00 | 0.00 | 0.00 | 23 | 1011.4 |
| 20260501190508 | 30 | 0 | 1.6 | 8.0 | 0.00 | 0.00 | 0.00 | 25 | 1011.5 |
| 20260501190029 | 30 | 142 | 1.6 | 11.3 | 0.00 | 0.00 | 0.00 | 24 | 1011.5 |
| 20260501185511 | 30 | 0 | 3.2 | 11.3 | 0.00 | 0.00 | 0.00 | 24 | 1011.6 |
| 20260501185008 | 30 | 0 | 1.6 | 4.8 | 0.00 | 0.00 | 0.00 | 24 | 1011.8 |
| 20260501184528 | 30 | 0 | 0.0 | 9.7 | 0.00 | 0.00 | 0.00 | 24 | 1011.8 |
| 20260501184010 | 30 | 124 | 0.0 | 9.7 | 0.00 | 0.00 | 0.00 | 24 | 1012.0 |
| 20260501183511 | 30 | 140 | 1.6 | 12.9 | 0.00 | 0.00 | 0.00 | 25 | 1011.9 |
| 20260501183028 | 30 | 140 | 4.8 | 12.9 | 0.00 | 0.00 | 0.00 | 25 | 1012.0 |
| 20260501182509 | 29 | 89 | 1.6 | 9.7 | 0.00 | 0.00 | 0.00 | 27 | 1012.1 |
| 20260501182014 | 28 | 83 | 3.2 | 11.3 | 0.00 | 0.00 | 0.00 | 27 | 1012.2 |
| 20260501181527 | 28 | 68 | 3.2 | 11.3 | 0.00 | 0.00 | 0.00 | 27 | 1012.3 |
| 20260501181010 | 28 | 86 | 4.8 | 12.9 | 0.00 | 0.00 | 0.00 | 28 | 1012.4 |
| 20260501180510 | 28 | 0 | 1.6 | 12.9 | 0.00 | 0.00 | 0.00 | 29 | 1012.5 |
| 20260501180034 | 28 | 71 | 4.8 | 12.9 | 0.00 | 0.00 | 0.00 | 28 | 1012.6 |
| 20260501175508 | 28 | 41 | 3.2 | 8.0 | 0.00 | 0.00 | 0.00 | 28 | 1012.7 |
| 20260501175009 | 27 | 15 | 1.6 | 8.0 | 0.00 | 0.00 | 0.00 | 30 | 1012.6 |
| 20260501174529 | 27 | 16 | 3.2 | 8.0 | 0.00 | 0.00 | 0.00 | 28 | 1012.8 |
| 20260501174010 | 27 | 315 | 1.6 | 9.7 | 0.00 | 0.00 | 0.00 | 29 | 1012.8 |
| 20260501173511 | 27 | 266 | 1.6 | 9.7 | 0.00 | 0.00 | 0.00 | 29 | 1012.7 |
| 20260501173034 | 27 | 311 | 1.6 | 8.0 | 0.00 | 0.00 | 0.00 | 30 | 1012.8 |
| 20260501172510 | 27 | 299 | 3.2 | 8.0 | 0.00 | 0.00 | 0.00 | 29 | 1012.7 |
| 20260501172016 | 27 | 215 | 3.2 | 8.0 | 0.00 | 0.00 | 0.00 | 30 | 1012.9 |
| 20260501171526 | 27 | 208 | 1.6 | 9.7 | 0.00 | 0.00 | 0.00 | 32 | 1012.8 |
| 20260501171010 | 26 | 226 | 3.2 | 9.7 | 0.00 | 0.00 | 0.00 | 30 | 1012.8 |
| 20260501170508 | 26 | 234 | 1.6 | 9.7 | 0.00 | 0.00 | 0.00 | 31 | 1012.8 |
| 20260501170036 | 26 | 264 | 1.6 | 9.7 | 0.00 | 0.00 | 0.00 | 31 | 1012.8 |
| 20260501165509 | 26 | 289 | 3.2 | 8.0 | 0.00 | 0.00 | 0.00 | 32 | 1012.8 |
| 20260501165015 | 26 | 306 | 1.6 | 6.4 | 0.00 | 0.00 | 0.00 | 34 | 1012.8 |
| 20260501164529 | 26 | 311 | 0.0 | 8.0 | 0.00 | 0.00 | 0.00 | 33 | 1012.8 |
| 20260501164007 | 26 | 326 | 1.6 | 8.0 | 0.00 | 0.00 | 0.00 | 32 | 1012.8 |
| 20260501163508 | 26 | 320 | 3.2 | 8.0 | 0.00 | 0.00 | 0.00 | 32 | 1012.7 |
| 20260501163029 | 26 | 309 | 1.6 | 6.4 | 0.00 | 0.00 | 0.00 | 33 | 1012.7 |
| 20260501162510 | 25 | 350 | 1.6 | 14.5 | 0.00 | 0.00 | 0.00 | 34 | 1012.8 |